首页
METAR-TAF:

METAR-TAF

机场 :

巴斯蒂亚, 法国

纬度: 42-33N, 经度: 009-29E, 海拔: 8米

当前天气观测

该预报发布于21分钟前的00:30 UTC
风速5节,风向西南
温度 10°C
湿度 71%
气压 1005 hPa
能见度10公里或以上
1500米以下无云,无积雨云

METAR: LFKB 140030Z AUTO 23005KT CAVOK 10/05 Q1005 NOSIG

时间: 01:51 (00:51 UTC)

预报

该预报发布于4小时和51分钟前的20:00 UTC
预报有效从13日的 21点(UTC)到 14日的 21点(UTC)
风速5节,风向西南
能见度10公里或以上
1500米以下无云,无积雨云
成为
从 14日的 14点(UTC)到 14日的 18点(UTC)
风速12节,风向南转南东,有时为22节阵风
多云层高于3500英尺
少量云层高于4000英尺, 积雨云.
短暂存在
从 14日的 18点(UTC)到 14日的 21点(UTC)
阵雨

TAF: LFKB 132000Z 1321/1421 22005KT CAVOK TX17/1415Z TN09/1405Z BECMG 1414/1418 15012G22KT BKN035 FEW040CB TEMPO 1418/1421 SHRA

超过4000个机场的气象观测和天气预报(METAR&TAF报告)。

可查询的气象台以黄色和红色小点在地图上表示。

将鼠标移到小点上方,可查看气象台名称。

然后点击查看天气观测和预报。

如需切换地图:点击带黑十字的绿色按钮放大地图;点击带横线的绿色按钮缩小地图;或者点击绿色箭头查看邻近地区的地图。


METAR-TAF: